Time;durP1;ratioP1;P1;durP2;ratioP2;P2;SDS_P1;SDS_P2;PMS_P1;PMS_P2;Temp;Humidity;BMP_temperature;BMP_pressure;BME280_temperature;BME280_humidity;BME280_pressure;Samples;Min_cycle;Max_cycle;Signal;HPM_P1;HPM_P2
2023/06/11 00:01:50;;;;;;;4.53;3.67;;;;;;;22.48;57.58;101459.63;5130414;27;20031;-37
2023/06/11 00:04:24;;;;;;;5.50;3.72;;;;;;;22.46;57.44;101448.09;5130038;27;20084;-37
2023/06/11 00:06:50;;;;;;;4.40;3.88;;;;;;;22.46;58.25;101461.06;5130390;27;20467;-37
2023/06/11 00:09:15;;;;;;;5.70;4.50;;;;;;;22.44;58.13;101455.00;5130425;27;20039;-37
2023/06/11 00:11:41;;;;;;;6.18;4.07;;;;;;;22.39;58.36;101463.34;5119306;27;20038;-37
2023/06/11 00:14:08;;;;;;;6.80;3.90;;;;;;;22.43;58.46;101445.09;5116112;28;20492;-37
2023/06/11 00:16:36;;;;;;;5.25;4.07;;;;;;;22.41;58.42;101450.91;5116326;28;20031;-37
2023/06/11 00:19:03;;;;;;;4.63;3.88;;;;;;;22.45;58.51;101448.38;5115729;28;20094;-37
2023/06/11 00:21:29;;;;;;;7.25;3.92;;;;;;;22.50;58.17;101448.34;5116309;28;20024;-37
2023/06/11 00:23:55;;;;;;;5.40;4.20;;;;;;;22.42;58.67;101443.47;5115947;28;20412;-37
2023/06/11 00:26:22;;;;;;;5.82;4.15;;;;;;;22.51;58.49;101452.72;5115964;28;20028;-37
2023/06/11 00:28:47;;;;;;;7.45;3.92;;;;;;;22.44;58.37;101443.97;5116568;28;20076;-37
2023/06/11 00:31:13;;;;;;;5.95;3.97;;;;;;;22.44;58.78;101435.72;5116155;28;20102;-37
2023/06/11 00:33:38;;;;;;;6.90;4.25;;;;;;;22.40;58.98;101443.78;5115729;28;20028;-37
2023/06/11 00:36:04;;;;;;;5.28;4.10;;;;;;;22.34;59.07;101443.00;5116331;28;20027;-37
2023/06/11 00:38:30;;;;;;;5.55;4.00;;;;;;;22.38;59.18;101451.50;5115649;28;20046;-37
2023/06/11 00:40:55;;;;;;;6.15;4.00;;;;;;;22.33;59.29;101441.38;5115711;28;20027;-37
2023/06/11 00:43:23;;;;;;;6.93;4.07;;;;;;;22.30;59.42;101436.47;5116120;28;20023;-37
2023/06/11 00:45:50;;;;;;;6.63;4.55;;;;;;;22.24;59.79;101437.63;5116011;28;20471;-37
2023/06/11 00:48:19;;;;;;;8.50;4.25;;;;;;;22.19;60.13;101434.13;5115570;28;20106;-37
2023/06/11 00:50:48;;;;;;;7.00;4.25;;;;;;;22.28;59.96;101432.34;5115786;28;20467;-37
2023/06/11 00:53:14;;;;;;;5.10;4.00;;;;;;;22.17;60.42;101439.94;5115108;28;20023;-37
2023/06/11 00:55:40;;;;;;;5.07;4.20;;;;;;;22.18;59.42;101436.06;5115669;28;20477;-37
2023/06/11 00:58:17;;;;;;;6.25;4.30;;;;;;;22.04;61.09;101435.91;5115259;28;20099;-37
2023/06/11 01:00:56;;;;;;;4.75;4.22;;;;;;;22.00;60.61;101432.09;5115101;27;20043;-37
2023/06/11 01:03:26;;;;;;;5.03;3.97;;;;;;;22.00;61.56;101436.78;5115496;28;20035;-37
2023/06/11 01:06:11;;;;;;;4.80;4.07;;;;;;;21.98;61.16;101445.34;5115651;28;20023;-37
2023/06/11 01:08:41;;;;;;;5.40;4.28;;;;;;;21.90;61.91;101431.41;5114858;28;20114;-37
2023/06/11 01:11:13;;;;;;;5.78;4.20;;;;;;;21.84;62.06;101442.47;5115735;28;20031;-37
2023/06/11 01:13:39;;;;;;;4.63;4.18;;;;;;;21.89;62.14;101446.28;5115185;28;20356;-37
2023/06/11 01:16:14;;;;;;;8.18;4.22;;;;;;;21.73;63.03;101440.13;5114951;28;20039;-37
2023/06/11 01:18:58;;;;;;;5.18;3.88;;;;;;;21.84;62.40;101441.66;5115536;28;20024;-37
2023/06/11 01:21:29;;;;;;;4.70;4.20;;;;;;;21.71;63.08;101432.16;5114802;28;20368;-37
2023/06/11 01:24:07;;;;;;;6.70;4.43;;;;;;;21.68;63.05;101446.50;5114125;28;20031;-37
2023/06/11 01:27:26;;;;;;;5.03;4.53;;;;;;;21.70;62.99;101449.78;5115478;28;20112;-37
2023/06/11 01:29:55;;;;;;;7.20;4.40;;;;;;;21.67;63.56;101449.53;5052335;28;20056;-37
2023/06/11 01:32:27;;;;;;;5.93;4.43;;;;;;;21.51;64.13;101435.13;5102438;28;20043;-37
2023/06/11 01:35:03;;;;;;;6.32;4.80;;;;;;;21.51;63.89;101443.38;5114863;28;20455;-37
2023/06/11 01:37:29;;;;;;;4.95;4.45;;;;;;;21.44;64.26;101451.97;5115021;28;20081;-37
2023/06/11 01:39:58;;;;;;;5.63;4.72;;;;;;;21.47;64.36;101450.56;5114383;28;20026;-37
2023/06/11 01:42:23;;;;;;;5.38;4.63;;;;;;;21.40;65.35;101452.84;5115038;28;20030;-37
2023/06/11 01:44:48;;;;;;;4.65;4.20;;;;;;;21.38;65.43;101447.63;5114877;28;20027;-37
2023/06/11 01:47:14;;;;;;;8.05;4.55;;;;;;;21.43;65.11;101449.53;5114880;28;20094;-37
2023/06/11 01:49:39;;;;;;;7.18;4.65;;;;;;;21.51;64.57;101441.44;5115078;28;20031;-37
2023/06/11 01:52:06;;;;;;;5.40;4.90;;;;;;;21.30;65.42;101445.47;5114749;28;20065;-37
2023/06/11 01:54:32;;;;;;;6.18;4.85;;;;;;;21.32;65.45;101451.50;5113917;28;20028;-37
2023/06/11 01:56:57;;;;;;;8.98;5.25;;;;;;;21.36;65.83;101449.84;5114158;28;20031;-37
2023/06/11 01:59:22;;;;;;;6.93;4.70;;;;;;;21.26;66.12;101453.47;5113900;28;20051;-37
2023/06/11 02:01:53;;;;;;;5.70;4.55;;;;;;;21.28;66.10;101453.19;5114572;28;20032;-37
2023/06/11 02:04:22;;;;;;;7.72;5.03;;;;;;;21.20;66.17;101442.81;5114134;28;20031;-37
2023/06/11 02:06:48;;;;;;;6.88;5.03;;;;;;;21.19;66.16;101452.97;5114443;28;20031;-37
2023/06/11 02:09:17;;;;;;;8.95;5.45;;;;;;;21.16;66.52;101445.31;5114457;28;20039;-37
2023/06/11 02:11:42;;;;;;;5.00;4.50;;;;;;;21.08;67.43;101448.66;5114161;28;20353;-37
2023/06/11 02:14:07;;;;;;;5.32;4.80;;;;;;;21.15;67.07;101449.16;5114331;28;20106;-37
2023/06/11 02:16:33;;;;;;;7.97;4.95;;;;;;;21.02;66.89;101444.31;5114009;28;20353;-37
2023/06/11 02:18:58;;;;;;;7.30;5.63;;;;;;;21.08;66.94;101438.50;5114214;28;20055;-37
2023/06/11 02:21:23;;;;;;;6.63;4.95;;;;;;;20.99;68.17;101450.41;5114061;28;20030;-37
2023/06/11 02:23:49;;;;;;;7.10;4.90;;;;;;;21.06;67.71;101450.88;5113688;28;20114;-37
2023/06/11 02:26:14;;;;;;;7.00;5.40;;;;;;;20.96;67.96;101446.28;5113604;28;20038;-37
2023/06/11 02:28:40;;;;;;;6.18;5.35;;;;;;;20.82;69.01;101454.34;5114139;28;20507;-37
2023/06/11 02:31:05;;;;;;;6.75;5.72;;;;;;;20.76;68.60;101447.25;5113328;28;20024;-37
2023/06/11 02:33:30;;;;;;;6.72;5.10;;;;;;;20.81;68.42;101449.97;5113394;28;20115;-37
2023/06/11 02:35:56;;;;;;;6.10;4.85;;;;;;;20.72;68.85;101446.16;5113777;28;20053;-37
2023/06/11 02:38:21;;;;;;;6.55;5.47;;;;;;;20.75;69.21;101453.03;5113585;28;20020;-37
2023/06/11 02:40:46;;;;;;;6.18;5.05;;;;;;;20.81;69.41;101447.22;5113699;28;20084;-37
2023/06/11 02:43:12;;;;;;;7.82;5.85;;;;;;;20.71;68.98;101439.03;5113375;28;20051;-37
2023/06/11 02:45:37;;;;;;;6.25;5.50;;;;;;;20.77;69.51;101454.38;5113450;28;20032;-37
2023/06/11 02:48:02;;;;;;;7.22;5.40;;;;;;;20.68;70.38;101450.59;5113301;28;20034;-37
2023/06/11 02:50:28;;;;;;;8.40;6.10;;;;;;;20.58;70.43;101448.72;5113399;28;20055;-37
2023/06/11 02:52:53;;;;;;;6.03;5.40;;;;;;;20.58;70.81;101451.47;5113616;28;20024;-37
2023/06/11 02:55:19;;;;;;;10.35;5.85;;;;;;;20.49;71.06;101447.66;5112978;28;20031;-37
2023/06/11 02:57:44;;;;;;;9.63;6.22;;;;;;;20.45;71.88;101449.31;5113033;28;20024;-37
2023/06/11 03:00:10;;;;;;;6.25;5.65;;;;;;;20.47;70.99;101452.63;5113578;28;20143;-37
2023/06/11 03:02:36;;;;;;;8.02;5.82;;;;;;;20.51;71.40;101448.22;5113176;28;20028;-37
2023/06/11 03:05:01;;;;;;;7.38;6.60;;;;;;;20.40;71.78;101443.00;5113560;28;20020;-37
2023/06/11 03:07:27;;;;;;;7.75;6.05;;;;;;;20.44;71.79;101455.06;5147175;27;20087;-37
2023/06/11 03:09:52;;;;;;;7.20;6.38;;;;;;;20.44;71.92;101452.31;5113609;28;20023;-37
2023/06/11 03:12:18;;;;;;;7.70;6.07;;;;;;;20.39;72.02;101458.66;5113463;28;20028;-37
2023/06/11 03:14:43;;;;;;;7.10;6.25;;;;;;;20.46;71.55;101461.13;5112883;28;20035;-37
2023/06/11 03:17:08;;;;;;;6.80;6.07;;;;;;;20.45;71.83;101457.56;5112791;28;20111;-37
2023/06/11 03:19:34;;;;;;;7.75;6.35;;;;;;;20.39;69.84;101452.34;5113052;28;20102;-37
2023/06/11 03:21:59;;;;;;;7.07;6.38;;;;;;;20.26;72.59;101459.31;5112971;28;20039;-37
2023/06/11 03:24:25;;;;;;;6.70;5.97;;;;;;;20.23;73.42;101455.19;5112846;28;20165;-37
2023/06/11 03:26:50;;;;;;;6.63;5.95;;;;;;;20.27;72.90;101461.75;5113662;28;20020;-37
2023/06/11 03:29:15;;;;;;;7.07;5.95;;;;;;;20.18;73.50;101462.63;5113186;28;20505;-37
2023/06/11 03:31:41;;;;;;;8.20;6.45;;;;;;;20.10;73.95;101454.94;5112633;28;20036;-37
2023/06/11 03:34:07;;;;;;;6.75;5.78;;;;;;;20.03;73.87;101445.09;5113582;28;20141;-37
2023/06/11 03:36:32;;;;;;;7.35;5.80;;;;;;;20.20;74.39;101466.72;5112930;28;20409;-37
2023/06/11 03:38:57;;;;;;;6.75;6.03;;;;;;;20.02;74.35;101468.16;5113119;28;20076;-37
2023/06/11 03:41:23;;;;;;;6.22;5.57;;;;;;;20.14;74.26;101469.75;5113170;28;20114;-37
2023/06/11 03:43:48;;;;;;;8.20;6.32;;;;;;;20.03;74.46;101464.31;5112885;28;20034;-37
2023/06/11 03:46:13;;;;;;;7.85;6.45;;;;;;;19.95;75.06;101467.63;5114733;28;20028;-37
2023/06/11 03:48:39;;;;;;;8.77;6.45;;;;;;;19.95;75.17;101470.38;5116368;28;20031;-37
2023/06/11 03:51:04;;;;;;;6.60;5.85;;;;;;;19.92;76.20;101470.13;5117220;28;20027;-37
2023/06/11 03:53:30;;;;;;;7.65;6.47;;;;;;;19.97;75.16;101470.91;5116246;28;20050;-37
2023/06/11 03:55:55;;;;;;;7.03;6.32;;;;;;;19.82;76.08;101476.44;5116542;27;20115;-37
2023/06/11 03:58:21;;;;;;;8.15;6.43;;;;;;;19.80;76.94;101484.13;5117198;28;20023;-37
2023/06/11 04:00:46;;;;;;;9.05;6.25;;;;;;;19.75;76.88;101481.38;5116109;28;20051;-37
2023/06/11 04:03:11;;;;;;;7.28;6.40;;;;;;;19.68;77.79;101476.19;5116597;28;20024;-37
2023/06/11 04:05:37;;;;;;;7.45;6.40;;;;;;;19.67;77.66;101476.47;5116385;28;20051;-37
2023/06/11 04:08:03;;;;;;;7.57;6.72;;;;;;;19.61;78.05;101474.81;5116045;28;20425;-37
2023/06/11 04:10:28;;;;;;;10.73;7.05;;;;;;;19.68;77.86;101476.19;5116927;28;20439;-37
2023/06/11 04:12:54;;;;;;;9.27;6.97;;;;;;;19.66;78.31;101475.63;5115871;28;20028;-37
2023/06/11 04:15:20;;;;;;;7.13;6.43;;;;;;;19.66;78.19;101474.81;5116324;28;20042;-37
2023/06/11 04:17:45;;;;;;;7.60;6.90;;;;;;;19.71;77.98;101486.59;5116095;28;20074;-37
2023/06/11 04:20:11;;;;;;;8.23;6.78;;;;;;;19.60;78.26;101467.69;5116297;28;20024;-37
2023/06/11 04:22:39;;;;;;;8.68;7.22;;;;;;;19.63;78.23;101476.19;5115690;28;20063;-37
2023/06/11 04:25:08;;;;;;;7.93;6.50;;;;;;;19.72;77.55;101466.31;5115982;28;20024;-37
2023/06/11 04:27:33;;;;;;;8.75;7.05;;;;;;;19.80;77.67;101478.63;5116142;28;20051;-37
2023/06/11 04:30:00;;;;;;;8.18;7.07;;;;;;;19.83;76.86;101482.75;5116096;28;20061;-37
2023/06/11 04:32:26;;;;;;;7.68;6.82;;;;;;;19.89;77.75;101479.72;5116859;28;20034;-37
2023/06/11 04:34:53;;;;;;;8.35;7.13;;;;;;;19.93;77.49;101480.00;5115782;28;20379;-37
2023/06/11 04:37:19;;;;;;;10.68;6.95;;;;;;;19.98;77.70;101472.56;5115727;28;20038;-37
2023/06/11 04:39:45;;;;;;;7.53;6.82;;;;;;;20.18;77.00;101481.84;5115609;28;20019;-37
2023/06/11 04:42:11;;;;;;;10.15;7.30;;;;;;;20.07;76.56;101478.31;5115688;28;20406;-37
2023/06/11 04:44:38;;;;;;;7.85;6.60;;;;;;;20.17;76.62;101482.94;5115583;28;20420;-37
2023/06/11 04:47:05;;;;;;;7.60;6.72;;;;;;;20.23;76.02;101476.31;5116254;28;20034;-37
2023/06/11 04:49:30;;;;;;;8.60;7.10;;;;;;;20.25;75.96;101477.69;5115529;28;20119;-37
2023/06/11 04:51:58;;;;;;;6.68;6.07;;;;;;;20.46;75.65;101474.88;5115629;28;20443;-37
2023/06/11 04:54:23;;;;;;;7.55;6.85;;;;;;;20.38;75.48;101473.50;5115065;28;20051;-37
2023/06/11 04:56:49;;;;;;;7.18;6.15;;;;;;;20.43;75.64;101467.19;5115710;28;20123;-37
2023/06/11 04:59:15;;;;;;;7.97;7.15;;;;;;;20.48;75.21;101483.66;5114984;28;20482;-37
2023/06/11 05:01:46;;;;;;;8.75;6.68;;;;;;;20.53;74.33;101480.88;5115538;28;20023;-37
2023/06/11 05:04:13;;;;;;;9.40;7.45;;;;;;;20.81;74.86;101485.69;5115730;28;20055;-37
2023/06/11 05:06:44;;;;;;;8.48;6.13;;;;;;;20.91;73.95;101487.56;5115839;28;20477;-37
2023/06/11 05:09:10;;;;;;;9.68;6.80;;;;;;;20.87;74.13;101478.22;5115586;28;20092;-37
2023/06/11 05:11:36;;;;;;;8.63;6.70;;;;;;;20.87;73.66;101480.16;5115290;28;20028;-37
2023/06/11 05:14:01;;;;;;;7.65;6.80;;;;;;;20.92;73.34;101478.19;5115049;28;20093;-37
2023/06/11 05:16:26;;;;;;;7.65;6.65;;;;;;;20.90;72.98;101479.59;5115294;27;20031;-37
2023/06/11 05:18:51;;;;;;;7.65;6.75;;;;;;;21.00;72.69;101493.28;5114655;27;20382;-37
2023/06/11 05:21:17;;;;;;;11.13;6.45;;;;;;;21.12;72.37;101482.72;5114433;28;20482;-37
2023/06/11 05:23:42;;;;;;;9.55;7.43;;;;;;;21.12;71.53;101490.97;5114314;28;20110;-42
2023/06/11 05:26:14;;;;;;;9.07;6.85;;;;;;;21.15;72.77;101490.41;5114213;28;20443;-37
2023/06/11 05:28:39;;;;;;;7.78;6.85;;;;;;;21.17;70.90;101490.94;5114236;28;20517;-37
2023/06/11 05:31:06;;;;;;;9.63;6.45;;;;;;;21.31;71.35;101494.72;5114181;28;20031;-37
2023/06/11 05:33:31;;;;;;;9.93;7.15;;;;;;;21.34;69.95;101496.91;5114460;28;20027;-37
2023/06/11 05:35:57;;;;;;;8.75;6.30;;;;;;;21.49;69.84;101489.63;5114121;27;20035;-37
2023/06/11 05:38:24;;;;;;;14.75;6.40;;;;;;;21.62;70.06;101491.72;5114763;28;20024;-37
2023/06/11 05:40:50;;;;;;;6.72;6.13;;;;;;;21.67;70.32;101488.91;5114462;28;20024;-37
2023/06/11 05:43:15;;;;;;;6.28;5.47;;;;;;;21.74;69.46;101492.13;5114159;28;20032;-37
2023/06/11 05:45:48;;;;;;;6.15;5.65;;;;;;;21.86;69.55;101491.72;5114106;28;20036;-37
2023/06/11 05:48:14;;;;;;;6.80;6.03;;;;;;;21.90;69.04;101494.72;5113862;28;20023;-37
2023/06/11 05:50:39;;;;;;;8.38;5.65;;;;;;;21.95;68.89;101489.97;5114118;28;20034;-37
2023/06/11 05:53:05;;;;;;;6.50;5.90;;;;;;;21.98;68.99;101483.91;5114212;28;20030;-37
2023/06/11 05:55:30;;;;;;;6.60;5.93;;;;;;;21.96;67.11;101486.13;5113681;28;20111;-37
2023/06/11 05:57:56;;;;;;;6.93;5.32;;;;;;;22.12;67.39;101492.31;5113545;28;20034;-37
2023/06/11 06:00:21;;;;;;;6.85;5.88;;;;;;;22.16;67.33;101496.13;5113456;28;20047;-37
2023/06/11 06:02:47;;;;;;;9.95;5.40;;;;;;;22.30;67.45;101482.44;5114231;28;20039;-37
2023/06/11 06:05:13;;;;;;;7.10;6.00;;;;;;;22.35;65.78;101488.75;5114110;28;20406;-37
2023/06/11 06:07:38;;;;;;;9.43;6.10;;;;;;;22.42;66.44;101482.03;5114254;28;20035;-37
2023/06/11 06:10:04;;;;;;;8.65;5.82;;;;;;;22.54;65.15;101501.72;5113139;28;20051;-37
2023/06/11 06:12:29;;;;;;;5.75;5.22;;;;;;;22.63;65.93;101498.00;5112637;28;20039;-37
2023/06/11 06:14:55;;;;;;;6.40;5.80;;;;;;;22.71;64.64;101495.72;5113599;28;20028;-37
2023/06/11 06:17:20;;;;;;;8.15;6.97;;;;;;;22.72;64.32;101500.09;5113756;28;20055;-37
2023/06/11 06:19:46;;;;;;;8.38;6.70;;;;;;;22.75;64.63;101513.31;5113461;28;20501;-38
2023/06/11 06:22:11;;;;;;;7.32;6.63;;;;;;;22.65;64.86;101497.72;5113861;28;20031;-37
2023/06/11 06:24:36;;;;;;;8.05;6.55;;;;;;;22.76;64.60;101513.00;5113518;28;20058;-37
2023/06/11 06:27:02;;;;;;;6.70;6.00;;;;;;;22.91;65.33;101500.16;5113114;28;20034;-37
2023/06/11 06:29:27;;;;;;;10.50;6.45;;;;;;;22.97;65.19;101496.19;5113075;28;20035;-37
2023/06/11 06:31:53;;;;;;;8.80;6.50;;;;;;;23.03;64.38;101511.53;5113307;28;20046;-37
2023/06/11 06:34:18;;;;;;;8.75;6.35;;;;;;;23.04;64.44;101510.44;5113340;28;20024;-37
2023/06/11 06:36:45;;;;;;;6.95;6.05;;;;;;;23.07;63.53;101502.38;5113805;27;20142;-37
2023/06/11 06:39:10;;;;;;;6.63;6.03;;;;;;;23.23;63.76;101511.25;5113427;28;20059;-37
2023/06/11 06:41:36;;;;;;;10.23;6.55;;;;;;;23.19;63.35;101501.13;5113989;28;20538;-37
2023/06/11 06:44:01;;;;;;;10.18;6.25;;;;;;;23.33;63.80;101513.03;5112884;28;20020;-38
2023/06/11 06:46:26;;;;;;;7.22;6.40;;;;;;;23.38;63.38;101505.47;5113356;28;20107;-37
2023/06/11 06:48:52;;;;;;;6.55;5.95;;;;;;;23.47;62.47;101516.63;5113234;28;20056;-37
2023/06/11 06:51:20;;;;;;;8.38;5.85;;;;;;;23.48;62.71;101511.97;5113463;28;20024;-37
2023/06/11 06:53:47;;;;;;;6.72;5.97;;;;;;;23.55;63.56;101509.63;5112722;28;20536;-37
2023/06/11 06:56:13;;;;;;;8.20;5.93;;;;;;;23.59;63.32;101511.47;5113242;28;20062;-37
2023/06/11 06:58:38;;;;;;;6.68;5.70;;;;;;;23.69;63.60;101513.25;5112745;28;20059;-37
2023/06/11 07:01:04;;;;;;;8.15;5.90;;;;;;;23.82;62.57;101512.47;5113110;28;20051;-37
2023/06/11 07:03:30;;;;;;;6.20;5.60;;;;;;;23.88;62.29;101510.44;5112969;28;20028;-37
2023/06/11 07:05:55;;;;;;;6.35;5.55;;;;;;;24.01;62.59;101506.03;5113150;28;20435;-37
2023/06/11 07:08:21;;;;;;;6.88;5.30;;;;;;;24.10;61.61;101510.56;5112754;28;20023;-36
2023/06/11 07:10:51;;;;;;;6.68;4.82;;;;;;;24.24;61.12;101505.03;5113290;28;20035;-37
2023/06/11 07:13:17;;;;;;;7.70;4.97;;;;;;;24.34;61.89;101510.34;5112676;28;20107;-37
2023/06/11 07:15:43;;;;;;;8.30;4.90;;;;;;;24.37;61.23;101503.44;5113395;28;20062;-37
2023/06/11 07:18:08;;;;;;;5.68;5.05;;;;;;;24.42;60.36;101508.03;5112956;28;20055;-37
2023/06/11 07:20:34;;;;;;;7.07;5.35;;;;;;;24.46;59.34;101506.31;5113827;28;20035;-37
2023/06/11 07:23:00;;;;;;;5.60;4.80;;;;;;;24.55;59.57;101507.22;5117104;28;20031;-37
2023/06/11 07:25:28;;;;;;;8.05;4.95;;;;;;;24.54;59.59;101505.56;5117302;27;20473;-37
2023/06/11 07:27:54;;;;;;;7.93;4.90;;;;;;;24.64;59.56;101513.63;5116712;28;20431;-37
2023/06/11 07:30:20;;;;;;;5.28;4.32;;;;;;;24.74;59.15;101507.06;5117474;28;20031;-37
2023/06/11 07:32:45;;;;;;;5.25;4.80;;;;;;;24.84;59.96;101506.81;5116693;28;20505;-37
2023/06/11 07:35:11;;;;;;;4.60;4.20;;;;;;;24.93;60.80;101516.84;5117233;28;20037;-37
2023/06/11 07:37:36;;;;;;;6.03;4.53;;;;;;;25.05;58.91;101512.72;5117174;28;20020;-37
2023/06/11 07:40:04;;;;;;;8.77;4.57;;;;;;;25.11;58.96;101512.31;5117100;28;20036;-37
2023/06/11 07:42:29;;;;;;;5.90;3.90;;;;;;;25.12;58.21;101496.53;5117318;28;20375;-37
2023/06/11 07:44:54;;;;;;;4.72;4.03;;;;;;;25.28;56.40;101508.88;5116730;28;20026;-37
2023/06/11 07:47:20;;;;;;;5.18;4.00;;;;;;;25.37;57.72;101509.72;5116763;28;20035;-37
2023/06/11 07:49:46;;;;;;;5.28;4.40;;;;;;;25.39;57.98;101513.03;5116594;28;20040;-37
2023/06/11 07:52:11;;;;;;;9.63;4.50;;;;;;;25.36;56.32;101508.09;5116635;28;20031;-37
2023/06/11 07:54:37;;;;;;;6.07;4.20;;;;;;;25.43;56.01;101508.50;5116255;28;20020;-37
2023/06/11 07:57:02;;;;;;;4.55;3.95;;;;;;;25.46;56.40;101509.00;5116519;28;20080;-37
2023/06/11 07:59:29;;;;;;;4.65;4.18;;;;;;;25.57;56.04;101502.91;5116380;28;20028;-37
2023/06/11 08:01:55;;;;;;;6.68;4.32;;;;;;;25.64;55.33;101522.63;5116691;28;20035;-37
2023/06/11 08:04:20;;;;;;;4.78;4.25;;;;;;;25.66;54.70;101512.03;5117034;28;20027;-37
2023/06/11 08:06:46;;;;;;;6.70;4.00;;;;;;;25.75;56.18;101514.91;5116658;28;20157;-38
2023/06/11 08:09:11;;;;;;;6.65;4.10;;;;;;;25.78;54.72;101511.50;5116267;28;20039;-37
2023/06/11 08:11:37;;;;;;;6.45;4.22;;;;;;;25.85;54.77;101516.59;5116358;28;20031;-37
2023/06/11 08:14:02;;;;;;;4.35;3.92;;;;;;;25.91;55.49;101499.53;5116553;28;20448;-37
2023/06/11 08:16:28;;;;;;;6.32;4.20;;;;;;;26.14;54.43;101510.53;5115906;28;20024;-37
2023/06/11 08:18:55;;;;;;;4.70;4.22;;;;;;;26.21;54.59;101510.88;5116166;28;20028;-37
2023/06/11 08:21:20;;;;;;;4.22;3.83;;;;;;;26.26;54.36;101510.75;5116834;28;20027;-37
2023/06/11 08:23:46;;;;;;;7.35;3.63;;;;;;;26.33;53.71;101500.00;5116332;28;20506;-37
2023/06/11 08:26:12;;;;;;;4.22;3.83;;;;;;;26.54;53.51;101504.97;5116035;28;20456;-37
2023/06/11 08:28:37;;;;;;;5.63;3.67;;;;;;;26.68;53.21;101486.22;5115873;28;20031;-37
2023/06/11 08:31:02;;;;;;;4.20;3.80;;;;;;;26.69;53.43;101508.13;5116584;28;20465;-38
2023/06/11 08:33:28;;;;;;;5.40;3.80;;;;;;;26.77;52.80;101495.38;5115610;28;20055;-38
2023/06/11 08:35:53;;;;;;;4.30;3.90;;;;;;;26.93;54.26;101502.06;5116316;28;20020;-38
2023/06/11 08:38:19;;;;;;;5.55;4.22;;;;;;;27.04;51.68;101493.44;5115419;28;20020;-38
2023/06/11 08:40:45;;;;;;;4.28;3.70;;;;;;;27.09;51.91;101507.19;5115604;28;20023;-38
2023/06/11 08:43:10;;;;;;;6.45;3.85;;;;;;;27.14;51.50;101493.16;5115544;28;20044;-38
2023/06/11 08:45:42;;;;;;;5.18;3.95;;;;;;;27.26;51.30;101501.59;5115355;28;20060;-38
2023/06/11 08:48:08;;;;;;;4.13;3.60;;;;;;;27.33;51.91;101488.06;5130716;27;20048;-37
2023/06/11 08:50:35;;;;;;;6.57;3.60;;;;;;;27.30;49.59;101485.13;5115892;28;20032;-38
2023/06/11 08:53:02;;;;;;;4.60;3.92;;;;;;;27.35;49.42;101482.16;5116199;28;20093;-37
2023/06/11 08:55:29;;;;;;;5.35;3.35;;;;;;;27.54;49.06;101481.81;5115822;28;20077;-37
2023/06/11 08:57:54;;;;;;;8.25;3.90;;;;;;;27.69;49.78;101486.81;5115017;28;20028;-37
2023/06/11 09:00:21;;;;;;;6.95;3.33;;;;;;;27.62;48.77;101479.00;5115498;28;20403;-38
2023/06/11 09:02:46;;;;;;;7.97;3.65;;;;;;;27.79;48.24;101488.47;5114750;28;20110;-37
2023/06/11 09:05:12;;;;;;;5.07;3.83;;;;;;;27.86;49.00;101478.44;5115336;28;20119;-37
2023/06/11 09:07:37;;;;;;;4.38;3.35;;;;;;;27.86;47.48;101474.84;5115861;28;20088;-37
2023/06/11 09:10:05;;;;;;;3.72;3.10;;;;;;;27.96;47.67;101478.09;5115557;28;20070;-37
2023/06/11 09:12:31;;;;;;;4.97;3.40;;;;;;;28.11;47.12;101476.72;5115104;28;20058;-37
2023/06/11 09:14:56;;;;;;;5.32;3.45;;;;;;;28.27;46.75;101474.19;5114926;28;20063;-37
2023/06/11 09:17:21;;;;;;;5.25;3.45;;;;;;;28.34;46.51;101476.44;5115452;28;20043;-37
2023/06/11 09:19:47;;;;;;;4.22;3.58;;;;;;;28.56;46.84;101478.94;5114760;28;20024;-37
2023/06/11 09:22:14;;;;;;;4.63;3.13;;;;;;;28.65;45.77;101471.34;5115209;28;20027;-37
2023/06/11 09:24:40;;;;;;;3.30;3.00;;;;;;;28.52;45.44;101469.63;5114452;28;20030;-37
2023/06/11 09:27:10;;;;;;;3.75;3.10;;;;;;;28.64;45.29;101483.59;5114237;28;20049;-37
2023/06/11 09:29:35;;;;;;;3.60;3.30;;;;;;;28.83;45.48;101466.44;5114476;28;20455;-37
2023/06/11 09:32:05;;;;;;;4.53;3.15;;;;;;;28.77;46.67;101467.81;5114596;28;20111;-37
2023/06/11 09:34:31;;;;;;;6.68;3.30;;;;;;;28.87;45.01;101475.75;5114727;28;20031;-37
2023/06/11 09:36:56;;;;;;;3.90;3.50;;;;;;;29.17;45.47;101470.13;5114713;28;20028;-37
2023/06/11 09:39:22;;;;;;;4.18;3.35;;;;;;;29.37;44.15;101468.44;5114438;28;20074;-38
2023/06/11 09:41:51;;;;;;;6.50;3.25;;;;;;;29.19;43.53;101470.59;5114375;28;20043;-38
2023/06/11 09:44:17;;;;;;;6.18;3.30;;;;;;;29.36;43.76;101476.00;5113088;28;20026;-38
2023/06/11 09:46:43;;;;;;;4.78;3.00;;;;;;;29.44;42.23;101463.13;5114315;28;20137;-37
2023/06/11 09:49:10;;;;;;;4.28;3.00;;;;;;;29.44;43.53;101465.94;5114145;28;20505;-37
2023/06/11 09:51:38;;;;;;;5.68;2.88;;;;;;;29.16;43.87;101476.84;5114785;28;20630;-37
2023/06/11 09:54:06;;;;;;;4.38;2.88;;;;;;;29.37;41.23;101472.03;5114171;28;20031;-38
2023/06/11 09:56:33;;;;;;;4.20;2.88;;;;;;;29.42;40.84;101476.56;5114402;28;20107;-37
2023/06/11 09:58:59;;;;;;;4.80;2.85;;;;;;;29.55;40.80;101474.69;5114303;28;20062;-37
2023/06/11 10:01:25;;;;;;;4.63;2.85;;;;;;;29.43;40.08;101470.69;5113997;28;20063;-37
2023/06/11 10:03:51;;;;;;;3.40;2.63;;;;;;;29.43;40.61;101481.03;5113681;28;20023;-37
2023/06/11 10:06:24;;;;;;;4.10;2.15;;;;;;;29.48;40.26;101481.59;5114396;28;20035;-37
2023/06/11 10:08:52;;;;;;;5.50;2.72;;;;;;;29.79;39.37;101471.13;5113687;28;20107;-37
2023/06/11 10:11:21;;;;;;;3.25;2.50;;;;;;;29.92;39.88;101476.38;5114334;28;20394;-37
2023/06/11 10:14:02;;;;;;;4.55;2.63;;;;;;;30.10;39.52;101468.56;5113356;28;20489;-37
2023/06/11 10:16:30;;;;;;;4.18;2.55;;;;;;;30.19;38.88;101477.66;5114538;28;20024;-37
2023/06/11 10:19:06;;;;;;;3.47;2.78;;;;;;;30.30;39.13;101471.63;5113626;28;20109;-37
2023/06/11 10:21:39;;;;;;;;;;;;;;;30.54;39.45;101477.16;5114627;28;20028;-37
2023/06/11 10:24:05;;;;;;;3.65;2.63;;;;;;;30.26;38.42;101474.31;5114342;28;19998;-37
2023/06/11 10:26:35;;;;;;;4.00;3.00;;;;;;;30.40;39.85;101466.38;5114163;28;20107;-37
2023/06/11 10:29:01;;;;;;;2.78;2.58;;;;;;;30.27;38.19;101468.38;5113293;28;20048;-37
2023/06/11 10:31:28;;;;;;;2.80;2.58;;;;;;;30.29;37.91;101465.22;5114318;28;20062;-38
2023/06/11 10:34:04;;;;;;;7.72;2.75;;;;;;;30.49;38.63;101474.63;5113360;28;20543;-37
2023/06/11 10:36:40;;;;;;;4.63;2.80;;;;;;;30.52;38.67;101462.75;5113569;28;20049;-37
2023/06/11 10:39:05;;;;;;;4.88;2.88;;;;;;;30.68;37.53;101466.44;5114006;28;20088;-37
2023/06/11 10:41:31;;;;;;;4.75;2.70;;;;;;;30.73;37.88;101469.00;5113430;28;20032;-37
2023/06/11 10:43:59;;;;;;;3.45;2.67;;;;;;;30.80;37.80;101462.84;5113635;28;20020;-38
2023/06/11 10:46:25;;;;;;;4.38;2.97;;;;;;;30.91;37.24;101466.75;5113355;28;20489;-38
2023/06/11 10:48:52;;;;;;;4.20;3.08;;;;;;;31.06;38.46;101459.59;5112992;28;20027;-38
2023/06/11 10:51:18;;;;;;;4.85;2.60;;;;;;;30.98;37.04;101463.34;5113335;28;20032;-38
2023/06/11 10:53:56;;;;;;;3.72;2.42;;;;;;;31.06;37.04;101456.00;5113157;28;20520;-36
2023/06/11 10:56:23;;;;;;;3.17;2.83;;;;;;;31.08;38.02;101457.25;5113357;27;20019;-37
2023/06/11 10:58:53;;;;;;;2.83;2.42;;;;;;;31.07;38.32;101454.81;5113049;28;20036;-37
2023/06/11 11:01:21;;;;;;;3.00;2.30;;;;;;;30.93;37.12;101444.06;5113856;28;20054;-38
2023/06/11 11:03:49;;;;;;;4.15;2.85;;;;;;;30.94;36.17;101448.47;5112907;28;20118;-37
2023/06/11 11:06:25;;;;;;;2.92;2.30;;;;;;;31.09;35.86;101456.09;5113499;28;20027;-37
2023/06/11 11:08:51;;;;;;;;;;;;;;;31.26;35.93;101453.00;5113192;28;20510;-38
2023/06/11 11:11:17;;;;;;;3.78;2.30;;;;;;;30.96;34.80;101448.94;5112960;28;19914;-37
2023/06/11 11:13:45;;;;;;;4.28;2.50;;;;;;;31.08;35.00;101462.84;5112441;28;20032;-37
2023/06/11 11:16:10;;;;;;;4.53;2.25;;;;;;;31.14;34.61;101458.63;5113101;28;20041;-37
2023/06/11 11:18:36;;;;;;;7.57;2.03;;;;;;;31.30;33.20;101461.50;5112914;28;20042;-37
2023/06/11 11:21:01;;;;;;;4.03;2.40;;;;;;;31.20;34.48;101461.97;5112732;28;20031;-37
2023/06/11 11:23:27;;;;;;;2.40;1.90;;;;;;;31.33;34.15;101454.38;5112464;28;20063;-38